createdAt,value
2023-04-23T00:02:17.068Z,60.30
2023-04-23T00:04:51.938Z,60.30
2023-04-23T00:07:22.311Z,60.30
2023-04-23T00:09:52.811Z,60.20
2023-04-23T00:12:21.080Z,60.40
2023-04-23T00:14:48.400Z,60.40
2023-04-23T00:17:15.363Z,60.30
2023-04-23T00:19:42.346Z,60.40
2023-04-23T00:22:09.330Z,60.30
2023-04-23T00:24:38.934Z,60.30
2023-04-23T00:27:06.577Z,60.40
2023-04-23T00:29:33.539Z,60.40
2023-04-23T00:32:00.746Z,60.50
2023-04-23T00:34:27.729Z,60.50
2023-04-23T00:36:55.153Z,60.60
2023-04-23T00:39:22.477Z,60.80
2023-04-23T00:41:50.516Z,61.10
2023-04-23T00:44:17.648Z,61.20
2023-04-23T00:46:45.177Z,61.30
2023-04-23T00:49:13.894Z,61.40
2023-04-23T00:51:40.819Z,61.50
2023-04-23T00:54:07.814Z,61.30
2023-04-23T00:56:35.214Z,61.40
2023-04-23T00:59:03.359Z,61.70
2023-04-23T01:01:30.389Z,61.90
2023-04-23T01:03:57.984Z,62.20
2023-04-23T01:06:25.233Z,62.30
2023-04-23T01:08:52.195Z,62.50
2023-04-23T01:11:19.665Z,62.60
2023-04-23T01:13:46.569Z,62.90
2023-04-23T01:16:13.480Z,63.00
2023-04-23T01:18:41.103Z,63.10
2023-04-23T01:21:11.650Z,63.20
2023-04-23T01:23:39.004Z,63.50
2023-04-23T01:26:06.279Z,63.70
2023-04-23T01:28:33.878Z,63.60
2023-04-23T01:31:01.590Z,63.80
2023-04-23T01:33:32.010Z,64.70
2023-04-23T01:36:00.204Z,64.30
2023-04-23T01:38:30.892Z,64.30
2023-04-23T01:40:57.861Z,64.40
2023-04-23T01:43:25.471Z,64.60
2023-04-23T01:45:53.227Z,64.80
2023-04-23T01:48:20.809Z,65.10
2023-04-23T01:50:48.504Z,65.30
2023-04-23T01:53:15.584Z,65.30
2023-04-23T01:55:46.118Z,65.30
2023-04-23T01:58:13.427Z,65.60
2023-04-23T02:00:40.481Z,65.60
2023-04-23T02:03:07.523Z,65.70
2023-04-23T02:05:36.048Z,65.70
2023-04-23T02:08:03.618Z,65.70
2023-04-23T02:10:31.745Z,65.40
2023-04-23T02:12:59.344Z,65.50
2023-04-23T02:15:26.276Z,65.40
2023-04-23T02:17:54.002Z,65.50
2023-04-23T02:20:21.823Z,65.50
2023-04-23T02:22:50.918Z,65.50
2023-04-23T02:25:18.876Z,65.50
2023-04-23T02:27:45.804Z,65.60
2023-04-23T02:30:13.032Z,65.50
2023-04-23T02:32:40.269Z,65.50
2023-04-23T02:35:09.348Z,65.40
2023-04-23T02:37:37.311Z,65.60
2023-04-23T02:40:08.124Z,65.60
2023-04-23T02:42:35.111Z,65.60
2023-04-23T02:45:02.004Z,65.60
2023-04-23T02:47:30.173Z,65.40
2023-04-23T02:49:57.680Z,65.40
2023-04-23T02:52:24.731Z,65.40
2023-04-23T02:54:51.827Z,65.30
2023-04-23T02:57:19.190Z,65.30
2023-04-23T02:59:46.338Z,65.40
2023-04-23T03:02:14.038Z,65.30
2023-04-23T03:04:41.429Z,65.40
2023-04-23T03:07:09.399Z,65.30
2023-04-23T03:09:36.261Z,65.30
2023-04-23T03:12:03.154Z,65.30
2023-04-23T03:14:30.188Z,65.30
2023-04-23T03:16:57.410Z,65.40
2023-04-23T03:19:24.424Z,65.40
2023-04-23T03:21:51.457Z,65.40
2023-04-23T03:24:18.626Z,65.40
2023-04-23T03:26:45.674Z,65.50
2023-04-23T03:29:12.620Z,65.80
2023-04-23T03:31:39.707Z,66.20
2023-04-23T03:34:09.154Z,66.30
2023-04-23T03:36:37.660Z,66.10
2023-04-23T03:39:04.594Z,66.20
2023-04-23T03:41:44.200Z,66.30
2023-04-23T03:44:12.941Z,67.10
2023-04-23T03:46:42.780Z,66.40
2023-04-23T03:49:10.316Z,66.50
2023-04-23T03:51:37.472Z,66.60
2023-04-23T03:54:04.601Z,66.70
2023-04-23T03:56:41.438Z,66.60
2023-04-23T03:59:16.015Z,66.60
2023-04-23T04:01:44.489Z,66.70
2023-04-23T04:04:11.703Z,66.90
2023-04-23T04:06:38.864Z,67.00
2023-04-23T04:09:06.161Z,67.20
2023-04-23T04:11:33.102Z,67.30
2023-04-23T04:14:00.005Z,67.60
2023-04-23T04:16:28.019Z,67.80
2023-04-23T04:18:56.621Z,67.90
2023-04-23T04:21:23.672Z,68.00
2023-04-23T04:23:51.124Z,68.20
2023-04-23T04:26:18.703Z,68.40
2023-04-23T04:28:45.629Z,68.40
2023-04-23T04:31:15.976Z,68.60
2023-04-23T04:33:43.328Z,68.90
2023-04-23T04:36:10.236Z,68.90
2023-04-23T04:38:39.723Z,69.10
2023-04-23T04:41:07.696Z,69.40
2023-04-23T04:43:34.877Z,69.40
2023-04-23T04:46:01.948Z,69.40
2023-04-23T04:48:28.879Z,69.50
2023-04-23T04:50:55.770Z,69.70
2023-04-23T04:53:22.778Z,69.80
2023-04-23T04:55:49.862Z,69.90
2023-04-23T04:58:16.931Z,70.10
2023-04-23T05:00:44.529Z,70.10
2023-04-23T05:03:14.316Z,70.50
2023-04-23T05:05:41.485Z,70.50
2023-04-23T05:08:08.746Z,71.20
2023-04-23T05:10:35.644Z,71.20
2023-04-23T05:13:02.544Z,71.30
2023-04-23T05:15:29.517Z,71.30
2023-04-23T05:17:56.593Z,71.20
2023-04-23T05:20:23.556Z,71.40
2023-04-23T05:22:50.476Z,72.20
2023-04-23T05:25:17.367Z,72.10
2023-04-23T05:27:44.277Z,72.10
2023-04-23T05:30:11.556Z,72.20
2023-04-23T05:32:39.305Z,72.40
2023-04-23T05:35:07.178Z,72.70
2023-04-23T05:37:34.141Z,72.90
2023-04-23T05:40:02.560Z,73.80
2023-04-23T05:42:29.533Z,73.80
2023-04-23T05:44:56.437Z,74.10
2023-04-23T05:47:23.375Z,74.60
2023-04-23T05:49:50.267Z,75.00
2023-04-23T05:52:17.755Z,75.00
2023-04-23T05:54:44.891Z,75.50
2023-04-23T05:57:12.636Z,75.90
2023-04-23T05:59:39.496Z,76.00
2023-04-23T06:02:07.504Z,76.00
2023-04-23T06:04:34.619Z,76.70
2023-04-23T06:07:01.776Z,77.00
2023-04-23T06:09:28.677Z,77.10
2023-04-23T06:11:55.730Z,77.10
2023-04-23T06:14:22.623Z,77.50
2023-04-23T06:16:49.545Z,77.90
2023-04-23T06:19:16.813Z,78.10
2023-04-23T06:21:43.723Z,78.50
2023-04-23T06:24:10.634Z,78.40
2023-04-23T06:26:37.531Z,79.00
2023-04-23T06:29:12.050Z,79.40
2023-04-23T06:31:49.974Z,80.50
2023-04-23T06:34:16.872Z,80.30
2023-04-23T06:36:43.873Z,80.60
2023-04-23T06:39:10.733Z,81.10
2023-04-23T06:41:38.149Z,81.10
2023-04-23T06:44:21.818Z,81.30
2023-04-23T06:46:54.421Z,81.60
2023-04-23T06:49:21.352Z,82.40
2023-04-23T06:51:48.385Z,82.80
2023-04-23T06:54:15.276Z,83.30
2023-04-23T06:56:42.179Z,83.60
2023-04-23T06:59:09.058Z,84.20
2023-04-23T07:01:44.628Z,84.20
2023-04-23T07:04:11.540Z,84.70
2023-04-23T07:06:38.430Z,85.00
2023-04-23T07:09:05.913Z,84.90
2023-04-23T07:11:34.811Z,85.30
2023-04-23T07:14:01.739Z,85.80
2023-04-23T07:16:32.179Z,86.30
2023-04-23T07:19:01.179Z,86.60
2023-04-23T07:21:28.814Z,87.40
2023-04-23T07:23:59.845Z,87.40
2023-04-23T07:26:27.818Z,88.00
2023-04-23T07:28:54.744Z,87.80
2023-04-23T07:31:22.266Z,88.30
2023-04-23T07:33:49.358Z,89.00
2023-04-23T07:36:16.298Z,89.60
2023-04-23T07:38:43.277Z,90.00
2023-04-23T07:41:10.354Z,90.30
2023-04-23T07:43:37.242Z,90.60
2023-04-23T07:46:05.061Z,90.80
2023-04-23T07:48:32.057Z,91.10
2023-04-23T07:50:59.041Z,91.20
2023-04-23T07:53:26.175Z,91.20
2023-04-23T07:55:53.102Z,91.10
2023-04-23T07:58:20.002Z,91.40
2023-04-23T08:00:46.931Z,91.30
2023-04-23T08:03:13.917Z,91.40
2023-04-23T08:05:41.431Z,91.50
2023-04-23T08:08:09.048Z,91.60
2023-04-23T08:10:36.341Z,91.60
2023-04-23T08:13:03.247Z,91.70
2023-04-23T08:15:30.373Z,91.90
2023-04-23T08:17:57.327Z,91.80
2023-04-23T08:20:24.265Z,91.80
2023-04-23T08:22:53.561Z,91.90
2023-04-23T08:25:21.100Z,91.90
2023-04-23T08:27:48.014Z,91.90
2023-04-23T08:30:15.089Z,91.90
2023-04-23T08:32:42.148Z,92.00
2023-04-23T08:35:09.531Z,92.20
2023-04-23T08:37:36.538Z,92.10
2023-04-23T08:40:05.048Z,92.10
2023-04-23T08:43:02.134Z,92.40
2023-04-23T08:45:30.872Z,92.60
2023-04-23T08:48:02.446Z,92.40
2023-04-23T08:50:30.963Z,92.70
2023-04-23T08:52:58.464Z,92.70
2023-04-23T08:55:25.834Z,92.70
2023-04-23T08:57:53.004Z,92.70
2023-04-23T09:00:23.200Z,92.80
2023-04-23T09:02:50.642Z,93.20
2023-04-23T09:05:17.847Z,93.10
2023-04-23T09:07:45.253Z,93.50
2023-04-23T09:10:16.253Z,93.70
2023-04-23T09:12:44.986Z,94.10
2023-04-23T09:15:13.818Z,94.30
2023-04-23T09:17:45.958Z,94.60
2023-04-23T09:20:14.863Z,94.50
2023-04-23T09:22:49.326Z,94.50
2023-04-23T09:25:19.729Z,94.70
2023-04-23T09:27:48.230Z,94.80
2023-04-23T09:30:16.404Z,94.70
2023-04-23T09:32:49.475Z,94.60
2023-04-23T09:35:20.119Z,94.50
2023-04-23T09:37:51.068Z,94.40
2023-04-23T09:40:22.731Z,94.50
2023-04-23T09:42:53.093Z,94.30
2023-04-23T09:45:20.734Z,94.10
2023-04-23T09:47:56.044Z,94.00
2023-04-23T09:50:40.580Z,94.30
2023-04-23T09:53:09.659Z,94.80
2023-04-23T09:55:39.744Z,94.60
2023-04-23T09:58:15.680Z,94.70
2023-04-23T10:00:43.054Z,94.80
2023-04-23T10:03:10.960Z,94.60
2023-04-23T10:05:59.813Z,94.40
2023-04-23T10:08:28.777Z,94.30
2023-04-23T10:11:06.636Z,94.30
2023-04-23T10:13:37.594Z,94.10
2023-04-23T10:16:18.620Z,94.10
2023-04-23T10:18:52.050Z,94.10
2023-04-23T10:21:20.844Z,93.80
2023-04-23T10:23:50.418Z,93.80
2023-04-23T10:26:19.518Z,93.70
2023-04-23T10:28:49.026Z,93.70
2023-04-23T10:31:16.584Z,93.60
2023-04-23T10:33:55.911Z,93.30
2023-04-23T10:36:25.892Z,93.10
2023-04-23T10:38:58.817Z,92.50
2023-04-23T10:41:34.952Z,92.70
2023-04-23T10:44:03.103Z,93.20
2023-04-23T10:46:31.841Z,93.10
2023-04-23T10:49:16.763Z,92.70
2023-04-23T10:54:20.375Z,92.50
2023-04-23T10:57:00.165Z,92.50
2023-04-23T10:59:29.729Z,92.60
2023-04-23T11:01:59.622Z,92.40
2023-04-23T11:04:29.930Z,92.50
2023-04-23T11:07:05.577Z,92.30
2023-04-23T11:09:44.285Z,92.30
2023-04-23T11:12:24.789Z,92.80
2023-04-23T11:14:56.977Z,92.60
2023-04-23T11:17:32.903Z,92.20
2023-04-23T11:20:14.962Z,91.90
2023-04-23T11:22:46.631Z,92.00
2023-04-23T11:25:22.928Z,92.00
2023-04-23T11:27:51.705Z,92.10
2023-04-23T11:30:25.271Z,92.30
2023-04-23T11:32:54.824Z,92.00
2023-04-23T11:35:28.529Z,91.80
2023-04-23T11:37:56.386Z,92.00
2023-04-23T11:40:24.233Z,91.60
2023-04-23T11:42:57.437Z,91.90
2023-04-23T11:45:26.490Z,91.90
2023-04-23T11:47:56.347Z,91.70
2023-04-23T11:50:33.602Z,91.10
2023-04-23T11:53:10.109Z,90.80
2023-04-23T11:55:38.213Z,90.50
2023-04-23T11:58:05.786Z,90.40
2023-04-23T12:00:32.720Z,90.50
2023-04-23T12:03:01.965Z,90.60
2023-04-23T12:05:37.770Z,90.60
2023-04-23T12:08:10.132Z,90.60
2023-04-23T12:11:06.142Z,90.40
2023-04-23T12:13:33.786Z,90.30
2023-04-23T12:16:05.332Z,90.40
2023-04-23T12:18:42.137Z,90.40
2023-04-23T12:21:11.309Z,90.10
2023-04-23T12:23:40.357Z,89.80
2023-04-23T12:26:15.825Z,90.00
2023-04-23T12:28:59.403Z,90.10
2023-04-23T12:31:29.133Z,90.30
2023-04-23T12:34:08.275Z,90.10
2023-04-23T12:36:40.813Z,89.00
2023-04-23T12:39:20.597Z,88.60
2023-04-23T12:41:49.901Z,88.10
2023-04-23T12:44:16.775Z,88.30
2023-04-23T12:46:43.673Z,85.60
2023-04-23T12:49:10.595Z,85.00
2023-04-23T12:51:37.705Z,84.30
2023-04-23T12:54:04.785Z,84.80
2023-04-23T12:56:31.696Z,84.80
2023-04-23T12:59:01.816Z,85.30
2023-04-23T13:01:29.144Z,84.70
2023-04-23T13:03:56.831Z,85.30
2023-04-23T13:06:23.990Z,85.20
2023-04-23T13:08:50.991Z,84.90
2023-04-23T13:11:17.879Z,84.50
2023-04-23T13:13:44.809Z,84.80
2023-04-23T13:16:11.838Z,82.90
2023-04-23T13:18:38.762Z,83.10
2023-04-23T13:21:05.937Z,82.00
2023-04-23T13:23:32.821Z,82.40
2023-04-23T13:25:59.709Z,80.40
2023-04-23T13:28:26.934Z,79.60
2023-04-23T13:30:53.986Z,76.90
2023-04-23T13:33:21.193Z,74.50
2023-04-23T13:35:48.163Z,74.70
2023-04-23T13:38:15.093Z,76.00
2023-04-23T13:40:41.984Z,75.40
2023-04-23T13:43:08.884Z,73.80
2023-04-23T13:45:35.944Z,74.40
2023-04-23T13:48:02.942Z,72.20
2023-04-23T13:50:29.874Z,72.10
2023-04-23T13:52:56.767Z,72.50
2023-04-23T13:55:23.652Z,73.20
2023-04-23T13:57:50.519Z,72.60
2023-04-23T14:00:18.120Z,72.10
2023-04-23T14:02:45.070Z,72.10
2023-04-23T14:05:12.144Z,72.50
2023-04-23T14:07:48.086Z,73.50
2023-04-23T14:10:15.539Z,74.40
2023-04-23T14:12:42.430Z,74.90
2023-04-23T14:15:09.955Z,75.00
2023-04-23T14:17:39.188Z,75.10
2023-04-23T14:20:07.672Z,75.30
2023-04-23T14:22:34.599Z,75.60
2023-04-23T14:25:10.912Z,74.20
2023-04-23T14:27:50.477Z,74.70
2023-04-23T14:30:21.547Z,74.50
2023-04-23T14:32:50.010Z,74.10
2023-04-23T14:35:17.480Z,73.60
2023-04-23T14:37:45.582Z,74.30
2023-04-23T14:40:15.745Z,74.10
2023-04-23T14:42:42.826Z,74.50
2023-04-23T14:45:09.954Z,74.60
2023-04-23T14:47:36.866Z,74.90
2023-04-23T14:50:04.234Z,74.70
2023-04-23T14:52:31.612Z,74.60
2023-04-23T14:54:58.517Z,75.30
2023-04-23T14:57:25.411Z,75.70
2023-04-23T14:59:52.328Z,75.60
2023-04-23T15:02:19.312Z,75.40
2023-04-23T15:04:46.414Z,75.20
2023-04-23T15:07:13.295Z,75.30
2023-04-23T15:09:40.440Z,73.70
2023-04-23T15:12:43.756Z,73.70
2023-04-23T15:15:43.109Z,73.20
2023-04-23T15:18:14.228Z,73.70
2023-04-23T15:20:42.166Z,74.30
2023-04-23T15:23:10.105Z,74.30
2023-04-23T15:25:37.385Z,73.70
2023-04-23T15:28:05.585Z,73.60
2023-04-23T15:30:32.652Z,73.20
2023-04-23T15:32:59.615Z,72.70
2023-04-23T15:35:28.031Z,73.10
2023-04-23T15:37:54.944Z,73.40
2023-04-23T15:40:21.833Z,72.80
2023-04-23T15:42:50.043Z,71.80
2023-04-23T15:45:17.243Z,72.00
2023-04-23T15:47:44.497Z,72.10
2023-04-23T15:50:11.821Z,71.60
2023-04-23T15:52:40.539Z,70.30
2023-04-23T15:55:08.088Z,70.00
2023-04-23T15:57:34.977Z,69.60
2023-04-23T16:00:01.904Z,69.70
2023-04-23T16:02:39.030Z,69.00
2023-04-23T16:05:06.196Z,68.90
2023-04-23T16:07:33.109Z,69.30
2023-04-23T16:10:00.040Z,69.50
2023-04-23T16:12:26.918Z,68.70
2023-04-23T16:14:53.928Z,68.60
2023-04-23T16:17:20.842Z,68.30
2023-04-23T16:19:47.976Z,68.10
2023-04-23T16:22:16.210Z,68.10
2023-04-23T16:24:43.129Z,68.30
2023-04-23T16:27:10.957Z,68.40
2023-04-23T16:29:38.732Z,68.00
2023-04-23T16:32:07.297Z,67.80
2023-04-23T16:34:34.492Z,67.90
2023-04-23T16:37:01.400Z,68.00
2023-04-23T16:39:28.314Z,68.10
2023-04-23T16:41:55.194Z,68.00
2023-04-23T16:44:22.080Z,68.10
2023-04-23T16:46:48.992Z,68.50
2023-04-23T16:49:15.966Z,68.60
2023-04-23T16:51:42.828Z,68.60
2023-04-23T16:54:09.854Z,68.20
2023-04-23T16:56:37.332Z,68.00
2023-04-23T16:59:04.895Z,67.90
2023-04-23T17:01:31.888Z,68.10
2023-04-23T17:03:59.070Z,68.20
2023-04-23T17:06:32.998Z,68.50
2023-04-23T17:09:03.139Z,68.60
2023-04-23T17:11:31.027Z,68.20
2023-04-23T17:13:58.297Z,68.50
2023-04-23T17:16:26.754Z,68.50
2023-04-23T17:18:54.937Z,68.70
2023-04-23T17:21:22.724Z,68.60
2023-04-23T17:23:49.753Z,68.60
2023-04-23T17:26:16.702Z,69.60
2023-04-23T17:28:43.632Z,69.10
2023-04-23T17:31:11.257Z,69.50
2023-04-23T17:33:38.742Z,69.60
2023-04-23T17:36:05.854Z,69.60
2023-04-23T17:38:32.738Z,69.20
2023-04-23T17:40:59.981Z,69.40
2023-04-23T17:43:27.346Z,69.50
2023-04-23T17:45:54.479Z,69.60
2023-04-23T17:48:23.001Z,69.80
2023-04-23T17:50:50.186Z,69.80
2023-04-23T17:53:17.148Z,70.10
2023-04-23T17:55:44.030Z,70.80
2023-04-23T17:58:10.905Z,71.80
2023-04-23T18:00:43.119Z,72.00
2023-04-23T18:03:11.657Z,72.60
2023-04-23T18:05:39.181Z,72.60
2023-04-23T18:08:07.453Z,73.30
2023-04-23T18:10:34.386Z,73.70
2023-04-23T18:13:03.341Z,73.70
2023-04-23T18:15:32.298Z,73.90
2023-04-23T18:17:59.715Z,74.00
2023-04-23T18:20:26.955Z,74.20
2023-04-23T18:22:56.628Z,74.40
2023-04-23T18:25:25.245Z,74.70
2023-04-23T18:27:52.177Z,75.00
2023-04-23T18:30:23.104Z,75.20
2023-04-23T18:33:00.807Z,75.50
2023-04-23T18:35:27.752Z,76.00
2023-04-23T18:38:02.664Z,76.30
2023-04-23T18:40:29.663Z,76.80
2023-04-23T18:42:56.756Z,76.90
2023-04-23T18:45:23.855Z,77.20
2023-04-23T18:47:57.692Z,77.40
2023-04-23T18:50:57.887Z,77.80
2023-04-23T18:53:24.759Z,78.50
2023-04-23T18:55:51.643Z,78.00
2023-04-23T18:58:18.513Z,78.60
2023-04-23T19:00:45.485Z,78.80
2023-04-23T19:03:25.334Z,78.80
2023-04-23T19:05:52.873Z,79.00
2023-04-23T19:08:19.766Z,79.30
2023-04-23T19:10:46.728Z,79.70
2023-04-23T19:13:13.605Z,79.80
2023-04-23T19:15:40.617Z,80.10
2023-04-23T19:18:07.564Z,80.60
2023-04-23T19:20:34.496Z,81.10
2023-04-23T19:23:01.385Z,81.50
2023-04-23T19:25:28.271Z,81.80
2023-04-23T19:27:55.142Z,82.00
2023-04-23T19:30:22.023Z,82.20
2023-04-23T19:32:48.986Z,82.30
2023-04-23T19:35:15.940Z,82.60
2023-04-23T19:37:42.808Z,82.70
2023-04-23T19:40:10.723Z,84.20
2023-04-23T19:42:37.624Z,84.20
2023-04-23T19:45:04.685Z,84.40
2023-04-23T19:47:33.106Z,84.50
2023-04-23T19:50:00.065Z,84.90
2023-04-23T19:52:27.958Z,84.90
2023-04-23T19:54:54.866Z,85.40
2023-04-23T19:57:22.258Z,85.90
2023-04-23T19:59:49.465Z,86.40
2023-04-23T20:02:16.863Z,86.70
2023-04-23T20:04:44.049Z,87.20
2023-04-23T20:07:11.128Z,87.40
2023-04-23T20:09:38.130Z,87.80
2023-04-23T20:12:05.330Z,88.30
2023-04-23T20:14:32.230Z,88.30
2023-04-23T20:16:59.318Z,88.50
2023-04-23T20:19:26.245Z,88.50
2023-04-23T20:21:53.696Z,88.70
2023-04-23T20:24:23.210Z,89.20
2023-04-23T20:26:50.334Z,89.60
2023-04-23T20:29:17.239Z,89.50
2023-04-23T20:31:48.732Z,89.20
2023-04-23T20:34:18.878Z,89.70
2023-04-23T20:36:48.910Z,90.00
2023-04-23T20:39:16.778Z,90.20
2023-04-23T20:41:46.389Z,90.30
2023-04-23T20:44:13.302Z,90.30
2023-04-23T20:46:40.508Z,90.50
2023-04-23T20:49:07.417Z,90.60
2023-04-23T20:51:34.455Z,90.60
2023-04-23T20:54:02.222Z,90.60
2023-04-23T20:56:29.790Z,90.60
2023-04-23T20:58:59.885Z,90.80
2023-04-23T21:01:27.283Z,90.80
2023-04-23T21:03:54.743Z,90.80
2023-04-23T21:06:22.210Z,90.90
2023-04-23T21:08:49.334Z,90.90
2023-04-23T21:11:19.090Z,91.00
2023-04-23T21:13:46.923Z,91.20
2023-04-23T21:16:14.220Z,91.20
2023-04-23T21:18:41.921Z,91.20
2023-04-23T21:21:08.819Z,91.20
2023-04-23T21:23:36.259Z,91.40
2023-04-23T21:26:03.592Z,91.50
2023-04-23T21:28:31.430Z,91.50
2023-04-23T21:31:07.719Z,91.50
2023-04-23T21:33:34.647Z,91.70
2023-04-23T21:36:01.576Z,91.70
2023-04-23T21:38:28.518Z,91.70
2023-04-23T21:40:55.454Z,91.80
2023-04-23T21:43:24.305Z,91.90
2023-04-23T21:45:51.402Z,92.00
2023-04-23T21:48:18.412Z,91.90
2023-04-23T21:50:45.363Z,91.90
2023-04-23T21:53:13.082Z,92.10
2023-04-23T21:55:39.986Z,92.00
2023-04-23T21:58:17.337Z,92.10
2023-04-23T22:00:45.773Z,92.20
2023-04-23T22:03:14.665Z,92.20
2023-04-23T22:05:49.348Z,92.20
2023-04-23T22:08:17.204Z,92.30
2023-04-23T22:10:44.681Z,92.40
2023-04-23T22:13:14.269Z,92.40
2023-04-23T22:15:41.326Z,92.40
2023-04-23T22:18:08.610Z,92.40
2023-04-23T22:20:37.536Z,92.40
2023-04-23T22:23:04.470Z,92.50
2023-04-23T22:25:31.384Z,92.50
2023-04-23T22:27:58.489Z,92.50
2023-04-23T22:30:25.409Z,92.40
2023-04-23T22:32:52.312Z,92.60
2023-04-23T22:35:19.297Z,92.20
2023-04-23T22:37:46.219Z,92.10
2023-04-23T22:40:13.101Z,92.30
2023-04-23T22:42:39.965Z,92.60
2023-04-23T22:45:08.334Z,92.60
2023-04-23T22:47:35.234Z,92.70
2023-04-23T22:50:02.268Z,92.70
2023-04-23T22:52:29.140Z,92.80
2023-04-23T22:54:56.847Z,92.90
2023-04-23T22:57:24.456Z,92.80
2023-04-23T22:59:51.355Z,92.90
2023-04-23T23:02:18.415Z,92.80
2023-04-23T23:04:45.893Z,92.80
2023-04-23T23:07:12.976Z,92.90
2023-04-23T23:09:39.869Z,92.90
2023-04-23T23:12:06.738Z,92.80
2023-04-23T23:14:34.005Z,92.80
2023-04-23T23:17:00.856Z,93.10
2023-04-23T23:19:27.998Z,93.00
2023-04-23T23:21:55.032Z,93.10
2023-04-23T23:24:22.383Z,93.00
2023-04-23T23:26:50.353Z,93.20
2023-04-23T23:29:17.247Z,93.20
2023-04-23T23:31:44.250Z,93.30
2023-04-23T23:34:11.762Z,93.30
2023-04-23T23:36:38.709Z,93.50
2023-04-23T23:39:06.694Z,93.60
2023-04-23T23:41:33.882Z,93.50
2023-04-23T23:44:00.833Z,93.90
2023-04-23T23:46:27.983Z,94.00
2023-04-23T23:48:55.022Z,94.10
2023-04-23T23:51:21.916Z,94.10
2023-04-23T23:53:48.936Z,94.00
2023-04-23T23:56:15.855Z,94.00
2023-04-23T23:58:42.761Z,94.00
